createdAt,value
2022-09-01T00:00:16.024Z,75.55
2022-09-01T00:01:16.014Z,75.65
2022-09-01T00:02:16.059Z,75.75
2022-09-01T00:03:15.977Z,76.05
2022-09-01T00:04:16.073Z,75.65
2022-09-01T00:05:15.956Z,75.55
2022-09-01T00:06:15.924Z,75.34
2022-09-01T00:07:15.923Z,75.34
2022-09-01T00:08:18.391Z,75.34
2022-09-01T00:09:15.925Z,75.24
2022-09-01T00:10:15.885Z,74.84
2022-09-01T00:11:22.898Z,74.94
2022-09-01T00:12:15.852Z,74.94
2022-09-01T00:13:15.845Z,74.94
2022-09-01T00:14:24.786Z,74.94
2022-09-01T00:15:16.845Z,74.84
2022-09-01T00:16:15.854Z,75.34
2022-09-01T00:17:15.785Z,74.63
2022-09-01T00:18:15.887Z,74.84
2022-09-01T00:19:15.755Z,75.04
2022-09-01T00:20:20.122Z,75.24
2022-09-01T00:21:15.752Z,75.24
2022-09-01T00:22:15.721Z,75.45
2022-09-01T00:23:15.704Z,74.84
2022-09-01T00:24:15.709Z,74.77
2022-09-01T00:25:15.693Z,75.18
2022-09-01T00:26:15.672Z,74.77
2022-09-01T00:27:15.654Z,75.38
2022-09-01T00:28:15.646Z,75.18
2022-09-01T00:29:15.627Z,75.58
2022-09-01T00:30:15.630Z,75.89
2022-09-01T00:31:15.659Z,75.28
2022-09-01T00:32:15.605Z,75.68
2022-09-01T00:33:15.579Z,75.89
2022-09-01T00:34:15.561Z,75.38
2022-09-01T00:35:15.562Z,75.38
2022-09-01T00:36:15.535Z,75.89
2022-09-01T00:37:15.536Z,75.58
2022-09-01T00:38:15.511Z,75.89
2022-09-01T00:39:15.494Z,75.58
2022-09-01T00:40:15.537Z,75.68
2022-09-01T00:41:15.466Z,75.28
2022-09-01T00:42:15.455Z,75.68
2022-09-01T00:43:15.455Z,75.99
2022-09-01T00:44:15.427Z,75.79
2022-09-01T00:45:15.417Z,75.58
2022-09-01T00:46:15.439Z,75.68
2022-09-01T00:47:16.389Z,75.99
2022-09-01T00:48:15.384Z,75.28
2022-09-01T00:49:15.378Z,75.68
2022-09-01T00:50:15.359Z,75.38
2022-09-01T00:51:15.338Z,76.09
2022-09-01T00:52:15.400Z,75.79
2022-09-01T00:53:15.309Z,75.58
2022-09-01T00:54:15.378Z,75.99
2022-09-01T00:55:15.288Z,75.58
2022-09-01T00:56:15.258Z,75.68
2022-09-01T00:57:15.240Z,75.48
2022-09-01T00:58:19.661Z,75.79
2022-09-01T00:59:15.219Z,75.79
2022-09-01T01:00:15.259Z,76.09
2022-09-01T01:01:15.255Z,75.89
2022-09-01T01:02:15.211Z,75.68
2022-09-01T01:03:15.192Z,76.19
2022-09-01T01:04:15.169Z,76.59
2022-09-01T01:05:15.597Z,76.19
2022-09-01T01:06:15.151Z,76.70
2022-09-01T01:07:15.167Z,76.39
2022-09-01T01:08:15.107Z,76.70
2022-09-01T01:09:15.111Z,76.90
2022-09-01T01:10:15.080Z,76.19
2022-09-01T01:11:15.098Z,76.59
2022-09-01T01:12:15.059Z,77.10
2022-09-01T01:13:15.030Z,76.70
2022-09-01T01:14:15.031Z,76.39
2022-09-01T01:15:15.007Z,76.90
2022-09-01T01:16:15.057Z,76.53
2022-09-01T01:17:15.011Z,76.93
2022-09-01T01:18:14.991Z,76.73
2022-09-01T01:19:14.963Z,76.73
2022-09-01T01:20:14.976Z,76.83
2022-09-01T01:21:14.936Z,77.14
2022-09-01T01:22:14.932Z,76.83
2022-09-01T01:23:14.920Z,76.93
2022-09-01T01:24:14.895Z,77.44
2022-09-01T01:25:14.883Z,77.54
2022-09-01T01:26:14.874Z,77.44
2022-09-01T01:27:14.853Z,77.44
2022-09-01T01:28:14.861Z,77.44
2022-09-01T01:29:14.830Z,77.34
2022-09-01T01:30:14.813Z,77.54
2022-09-01T01:31:14.844Z,77.54
2022-09-01T01:32:14.793Z,77.84
2022-09-01T01:33:14.779Z,77.84
2022-09-01T01:34:14.771Z,78.15
2022-09-01T01:35:14.870Z,77.75
2022-09-01T01:36:14.731Z,78.25
2022-09-01T01:37:14.772Z,78.25
2022-09-01T01:38:14.740Z,78.05
2022-09-01T01:39:14.732Z,78.15
2022-09-01T01:40:14.720Z,78.25
2022-09-01T01:41:14.673Z,78.25
2022-09-01T01:42:14.654Z,78.35
2022-09-01T01:43:14.644Z,78.35
2022-09-01T01:44:14.646Z,78.25
2022-09-01T01:45:14.685Z,78.35
2022-09-01T01:46:14.645Z,78.75
2022-09-01T01:47:14.584Z,78.86
2022-09-01T01:48:14.583Z,78.55
2022-09-01T01:49:14.553Z,78.66
2022-09-01T01:50:14.572Z,78.66
2022-09-01T01:51:14.533Z,78.69
2022-09-01T01:52:14.523Z,78.89
2022-09-01T01:53:14.501Z,79.00
2022-09-01T01:54:14.493Z,79.20
2022-09-01T01:55:14.473Z,79.20
2022-09-01T01:56:14.493Z,79.50
2022-09-01T01:57:14.463Z,79.94
2022-09-01T01:58:14.445Z,80.15
2022-09-01T01:59:14.434Z,80.05
2022-09-01T02:00:14.445Z,80.35
2022-09-01T02:01:14.469Z,80.65
2022-09-01T02:02:14.441Z,80.65
2022-09-01T02:03:14.384Z,80.99
2022-09-01T02:04:14.355Z,81.10
2022-09-01T02:05:14.395Z,81.40
2022-09-01T02:06:14.328Z,81.50
2022-09-01T02:07:14.346Z,81.81
2022-09-01T02:08:14.304Z,82.05
2022-09-01T02:09:14.284Z,82.25
2022-09-01T02:10:14.294Z,82.50
2022-09-01T02:11:14.262Z,82.80
2022-09-01T02:12:15.614Z,83.20
2022-09-01T02:13:14.248Z,83.20
2022-09-01T02:14:14.247Z,83.40
2022-09-01T02:15:14.226Z,83.61
2022-09-01T02:16:14.299Z,83.81
2022-09-01T02:17:14.196Z,83.91
2022-09-01T02:18:14.219Z,83.71
2022-09-01T02:19:14.176Z,83.85
2022-09-01T02:20:14.165Z,84.05
2022-09-01T02:21:18.384Z,84.26
2022-09-01T02:22:14.136Z,84.36
2022-09-01T02:23:14.097Z,84.36
2022-09-01T02:24:14.118Z,84.77
2022-09-01T02:25:14.090Z,84.87
2022-09-01T02:26:17.027Z,84.66
2022-09-01T02:27:14.058Z,84.56
2022-09-01T02:28:14.070Z,84.87
2022-09-01T02:29:14.026Z,84.97
2022-09-01T02:30:14.016Z,84.97
2022-09-01T02:31:14.095Z,85.21
2022-09-01T02:32:13.986Z,85.17
2022-09-01T02:33:13.990Z,85.07
2022-09-01T02:34:14.075Z,85.41
2022-09-01T02:35:14.007Z,85.31
2022-09-01T02:36:13.939Z,85.31
2022-09-01T02:37:13.928Z,85.31
2022-09-01T02:38:13.925Z,85.41
2022-09-01T02:39:13.899Z,85.72
2022-09-01T02:40:13.938Z,86.02
2022-09-01T02:41:13.880Z,85.92
2022-09-01T02:42:13.867Z,86.33
2022-09-01T02:43:13.856Z,86.22
2022-09-01T02:44:13.827Z,86.16
2022-09-01T02:45:13.829Z,86.16
2022-09-01T02:46:13.835Z,86.47
2022-09-01T02:47:13.817Z,86.68
2022-09-01T02:48:13.778Z,87.12
2022-09-01T02:49:13.769Z,87.32
2022-09-01T02:50:13.770Z,87.63
2022-09-01T02:51:13.768Z,87.73
2022-09-01T02:52:13.740Z,87.73
2022-09-01T02:53:13.728Z,87.63
2022-09-01T02:54:13.710Z,88.04
2022-09-01T02:55:13.690Z,88.24
2022-09-01T02:56:13.680Z,88.13
2022-09-01T02:57:13.682Z,88.24
2022-09-01T02:58:13.660Z,88.39
2022-09-01T02:59:13.638Z,88.48
2022-09-01T03:00:13.626Z,88.44
2022-09-01T03:01:13.678Z,88.54
2022-09-01T03:02:13.600Z,88.54
2022-09-01T03:03:13.600Z,88.34
2022-09-01T03:04:13.570Z,87.93
2022-09-01T03:05:13.628Z,88.04
2022-09-01T03:06:13.540Z,88.28
2022-09-01T03:07:13.571Z,88.39
2022-09-01T03:08:13.523Z,88.48
2022-09-01T03:09:13.504Z,88.69
2022-09-01T03:10:13.521Z,89.14
2022-09-01T03:11:13.574Z,89.44
2022-09-01T03:12:13.473Z,89.64
2022-09-01T03:13:13.462Z,89.75
2022-09-01T03:14:13.450Z,89.34
2022-09-01T03:15:13.463Z,89.54
2022-09-01T03:16:13.494Z,89.54
2022-09-01T03:17:13.400Z,89.95
2022-09-01T03:18:13.414Z,89.85
2022-09-01T03:19:13.382Z,89.54
2022-09-01T03:20:13.383Z,89.75
2022-09-01T03:21:13.340Z,90.05
2022-09-01T03:22:13.336Z,89.85
2022-09-01T03:23:13.320Z,89.75
2022-09-01T03:24:13.313Z,89.44
2022-09-01T03:25:13.303Z,89.14
2022-09-01T03:26:13.290Z,89.34
2022-09-01T03:27:13.269Z,89.64
2022-09-01T03:28:13.269Z,89.99
2022-09-01T03:29:13.233Z,90.09
2022-09-01T03:30:13.232Z,90.30
2022-09-01T03:31:13.201Z,90.64
2022-09-01T03:32:13.247Z,90.95
2022-09-01T03:33:13.196Z,91.36
2022-09-01T03:34:13.182Z,91.66
2022-09-01T03:35:13.164Z,91.97
2022-09-01T03:36:14.830Z,91.77
2022-09-01T03:37:13.143Z,91.81
2022-09-01T03:38:13.153Z,92.22
2022-09-01T03:39:16.628Z,92.22
2022-09-01T03:40:13.131Z,92.32
2022-09-01T03:41:13.426Z,92.42
2022-09-01T03:42:13.072Z,92.72
2022-09-01T03:43:13.045Z,92.72
2022-09-01T03:44:13.032Z,92.52
2022-09-01T03:45:13.013Z,92.52
2022-09-01T03:46:13.039Z,92.67
2022-09-01T03:47:13.002Z,92.87
2022-09-01T03:48:13.062Z,92.97
2022-09-01T03:49:12.994Z,93.18
2022-09-01T03:50:12.974Z,93.48
2022-09-01T03:51:12.944Z,93.69
2022-09-01T03:52:12.952Z,93.48
2022-09-01T03:53:12.935Z,92.87
2022-09-01T03:54:12.915Z,92.77
2022-09-01T03:55:12.903Z,92.67
2022-09-01T03:56:12.872Z,93.07
2022-09-01T03:57:13.937Z,93.18
2022-09-01T03:58:12.872Z,93.28
2022-09-01T03:59:12.850Z,93.43
2022-09-01T04:00:12.833Z,93.52
2022-09-01T04:01:13.692Z,93.63
2022-09-01T04:02:12.851Z,93.84
2022-09-01T04:03:12.793Z,93.93
2022-09-01T04:04:12.785Z,94.04
2022-09-01T04:05:12.823Z,94.04
2022-09-01T04:06:12.758Z,93.84
2022-09-01T04:07:15.569Z,93.84
2022-09-01T04:08:13.775Z,93.93
2022-09-01T04:09:12.735Z,93.84
2022-09-01T04:10:12.705Z,93.73
2022-09-01T04:11:12.725Z,93.73
2022-09-01T04:12:12.676Z,93.84
2022-09-01T04:13:12.668Z,93.84
2022-09-01T04:14:12.672Z,93.93
2022-09-01T04:15:12.634Z,94.29
2022-09-01T04:16:12.645Z,94.49
2022-09-01T04:17:12.604Z,94.70
2022-09-01T04:18:12.697Z,94.59
2022-09-01T04:19:12.585Z,94.70
2022-09-01T04:20:12.587Z,94.70
2022-09-01T04:21:12.563Z,94.70
2022-09-01T04:22:12.546Z,94.79
2022-09-01T04:23:12.528Z,95.10
2022-09-01T04:24:12.526Z,95.10
2022-09-01T04:25:12.516Z,95.20
2022-09-01T04:26:12.516Z,95.15
2022-09-01T04:27:12.478Z,95.25
2022-09-01T04:28:12.500Z,95.45
2022-09-01T04:29:12.464Z,95.35
2022-09-01T04:30:12.446Z,95.35
2022-09-01T04:31:12.460Z,95.25
2022-09-01T04:32:12.436Z,95.41
2022-09-01T04:33:12.467Z,95.41
2022-09-01T04:34:12.386Z,95.04
2022-09-01T04:35:12.384Z,95.15
2022-09-01T04:36:12.373Z,95.45
2022-09-01T04:37:12.395Z,95.41
2022-09-01T04:38:12.358Z,95.31
2022-09-01T04:39:12.341Z,95.10
2022-09-01T04:40:13.089Z,95.10
2022-09-01T04:41:12.305Z,95.31
2022-09-01T04:42:12.284Z,95.41
2022-09-01T04:43:12.286Z,95.31
2022-09-01T04:44:12.267Z,95.00
2022-09-01T04:45:12.257Z,94.65
2022-09-01T04:46:12.288Z,94.49
2022-09-01T04:47:12.227Z,94.55
2022-09-01T04:48:12.237Z,94.24
2022-09-01T04:49:13.241Z,94.14
2022-09-01T04:50:12.188Z,93.84
2022-09-01T04:51:12.177Z,93.73
2022-09-01T04:52:12.156Z,93.73
2022-09-01T04:53:12.190Z,93.93
2022-09-01T04:54:12.172Z,94.04
2022-09-01T04:55:12.124Z,94.24
2022-09-01T04:56:12.106Z,94.04
2022-09-01T04:57:12.096Z,94.14
2022-09-01T04:58:12.134Z,94.04
2022-09-01T04:59:12.126Z,94.14
2022-09-01T05:00:12.058Z,94.24
2022-09-01T05:01:12.120Z,94.34
2022-09-01T05:02:12.091Z,94.45
2022-09-01T05:03:12.017Z,94.24
2022-09-01T05:04:12.028Z,93.93
2022-09-01T05:05:12.019Z,93.79
2022-09-01T05:06:11.988Z,93.59
2022-09-01T05:07:11.969Z,93.48
2022-09-01T05:08:12.144Z,93.38
2022-09-01T05:09:11.984Z,93.28
2022-09-01T05:10:11.936Z,93.28
2022-09-01T05:11:11.930Z,93.59
2022-09-01T05:12:15.664Z,93.69
2022-09-01T05:13:11.909Z,93.69
2022-09-01T05:14:11.875Z,93.69
2022-09-01T05:15:11.858Z,93.48
2022-09-01T05:16:11.971Z,93.38
2022-09-01T05:17:11.850Z,93.38
2022-09-01T05:18:11.942Z,93.07
2022-09-01T05:19:11.820Z,93.07
2022-09-01T05:20:11.813Z,92.97
2022-09-01T05:21:11.799Z,92.97
2022-09-01T05:22:11.789Z,93.03
2022-09-01T05:23:11.771Z,93.33
2022-09-01T05:24:11.796Z,93.13
2022-09-01T05:25:11.739Z,92.83
2022-09-01T05:26:11.718Z,92.83
2022-09-01T05:27:11.736Z,92.63
2022-09-01T05:28:11.687Z,92.83
2022-09-01T05:29:11.747Z,92.58
2022-09-01T05:30:11.688Z,92.27
2022-09-01T05:31:11.681Z,92.07
2022-09-01T05:32:11.657Z,92.07
2022-09-01T05:33:11.650Z,91.97
2022-09-01T05:34:13.925Z,91.97
2022-09-01T05:35:11.628Z,91.87
2022-09-01T05:36:11.588Z,91.66
2022-09-01T05:37:11.588Z,91.56
2022-09-01T05:38:11.562Z,91.56
2022-09-01T05:39:11.558Z,91.46
2022-09-01T05:40:12.478Z,91.56
2022-09-01T05:41:11.530Z,91.77
2022-09-01T05:42:11.523Z,91.62
2022-09-01T05:43:11.521Z,91.72
2022-09-01T05:44:11.503Z,91.72
2022-09-01T05:45:11.494Z,91.52
2022-09-01T05:46:11.666Z,91.52
2022-09-01T05:47:11.451Z,91.11
2022-09-01T05:48:12.491Z,90.77
2022-09-01T05:49:11.419Z,90.86
2022-09-01T05:50:14.635Z,90.56
2022-09-01T05:51:22.613Z,90.77
2022-09-01T05:52:12.380Z,90.72
2022-09-01T05:53:11.370Z,90.22
2022-09-01T05:54:11.350Z,89.91
2022-09-01T05:55:11.340Z,90.11
2022-09-01T05:56:11.339Z,90.31
2022-09-01T05:57:33.376Z,89.56
2022-09-01T05:58:12.385Z,89.26
2022-09-01T05:59:26.862Z,88.75
2022-09-01T06:00:12.297Z,88.85
2022-09-01T06:01:11.263Z,88.95
2022-09-01T06:02:11.315Z,89.15
2022-09-01T06:03:11.360Z,89.15
2022-09-01T06:04:11.231Z,88.81
2022-09-01T06:05:11.211Z,88.60
2022-09-01T06:06:11.191Z,88.50
2022-09-01T06:07:14.609Z,88.10
2022-09-01T06:08:12.211Z,87.89
2022-09-01T06:09:11.150Z,87.55
2022-09-01T06:10:11.141Z,87.45
2022-09-01T06:11:11.152Z,87.24
2022-09-01T06:12:18.908Z,86.90
2022-09-01T06:13:11.179Z,87.10
2022-09-01T06:14:11.099Z,87.00
2022-09-01T06:15:11.096Z,86.90
2022-09-01T06:16:11.148Z,86.08
2022-09-01T06:17:11.058Z,85.98
2022-09-01T06:18:11.033Z,85.88
2022-09-01T06:19:11.034Z,85.74
2022-09-01T06:20:11.152Z,85.84
2022-09-01T06:21:10.996Z,85.84
2022-09-01T06:22:10.987Z,85.74
2022-09-01T06:23:11.057Z,85.44
2022-09-01T06:24:10.952Z,85.39
2022-09-01T06:25:10.984Z,85.30
2022-09-01T06:26:10.940Z,84.99
2022-09-01T06:27:10.929Z,84.99
2022-09-01T06:28:10.909Z,84.99
2022-09-01T06:29:10.910Z,84.85
2022-09-01T06:30:10.900Z,84.75
2022-09-01T06:31:10.918Z,84.34
2022-09-01T06:32:10.867Z,83.73
2022-09-01T06:33:10.859Z,83.43
2022-09-01T06:34:10.828Z,83.23
2022-09-01T06:35:10.857Z,83.49
2022-09-01T06:36:10.808Z,83.09
2022-09-01T06:37:10.788Z,82.38
2022-09-01T06:38:10.788Z,82.78
2022-09-01T06:39:10.778Z,82.28
2022-09-01T06:40:10.812Z,82.58
2022-09-01T06:41:10.773Z,82.44
2022-09-01T06:42:10.719Z,82.24
2022-09-01T06:43:10.719Z,82.14
2022-09-01T06:44:14.481Z,82.34
2022-09-01T06:45:10.680Z,82.34
2022-09-01T06:46:10.749Z,81.93
2022-09-01T06:47:10.680Z,81.59
2022-09-01T06:48:10.637Z,81.99
2022-09-01T06:49:10.645Z,81.79
2022-09-01T06:50:10.753Z,81.29
2022-09-01T06:51:20.540Z,81.18
2022-09-01T06:52:11.629Z,81.15
2022-09-01T06:54:13.852Z,80.44
2022-09-01T06:55:10.560Z,80.34
2022-09-01T06:56:10.572Z,80.34
2022-09-01T06:58:13.903Z,79.43
2022-09-01T06:59:10.489Z,79.73
2022-09-01T07:00:10.487Z,79.69
2022-09-01T07:01:10.472Z,78.99
2022-09-01T07:02:17.256Z,79.29
2022-09-01T07:03:11.445Z,78.88
2022-09-01T07:04:13.547Z,79.29
2022-09-01T07:05:59.858Z,79.59
2022-09-01T07:06:59.235Z,79.46
2022-09-01T07:08:11.383Z,77.94
2022-09-01T07:09:38.495Z,77.84
2022-09-01T07:12:26.765Z,78.00
2022-09-01T07:13:11.545Z,78.20
2022-09-01T07:14:17.443Z,77.50
2022-09-01T07:17:26.610Z,76.79
2022-09-01T07:18:11.260Z,75.44
2022-09-01T07:19:10.261Z,75.54
2022-09-01T07:20:25.752Z,75.84
2022-09-01T07:21:38.852Z,75.64
2022-09-01T07:22:35.234Z,75.54
2022-09-01T07:23:11.211Z,76.01
2022-09-01T07:24:11.116Z,75.60
2022-09-01T07:25:12.123Z,75.40
2022-09-01T07:26:10.144Z,75.31
2022-09-01T07:27:10.834Z,74.19
2022-09-01T07:28:10.124Z,74.56
2022-09-01T07:29:10.114Z,75.07
2022-09-01T07:30:10.100Z,74.36
2022-09-01T07:36:26.944Z,73.55
2022-09-01T07:38:47.404Z,73.05
2022-09-01T07:42:59.353Z,78.14
2022-09-01T07:43:10.975Z,72.61
2022-09-01T07:44:09.916Z,71.91
2022-09-01T07:45:25.905Z,72.07
2022-09-01T07:48:10.945Z,70.66
2022-09-01T07:50:25.041Z,69.85
2022-09-01T07:52:10.818Z,69.72
2022-09-01T07:53:09.798Z,69.72
2022-09-01T07:54:09.807Z,69.82
2022-09-01T07:55:09.766Z,70.02
2022-09-01T07:56:09.746Z,69.62
2022-09-01T07:57:09.736Z,68.81
2022-09-01T07:58:09.725Z,68.91
2022-09-01T07:59:14.584Z,69.29
2022-09-01T08:00:10.707Z,69.21
2022-09-01T08:01:09.677Z,69.29
2022-09-01T08:02:09.709Z,69.49
2022-09-01T08:03:09.715Z,69.69
2022-09-01T08:04:09.711Z,68.28
2022-09-01T08:05:09.656Z,68.18
2022-09-01T08:06:09.661Z,67.17
2022-09-01T08:07:15.526Z,66.77
2022-09-01T08:08:29.068Z,67.17
2022-09-01T08:09:11.891Z,68.08
2022-09-01T08:10:10.583Z,67.84
2022-09-01T08:11:09.558Z,67.94
2022-09-01T08:12:09.523Z,68.85
2022-09-01T08:13:15.388Z,67.64
2022-09-01T08:14:10.499Z,68.01
2022-09-01T08:15:13.025Z,66.63
2022-09-01T08:16:16.954Z,66.71
2022-09-01T08:17:18.300Z,65.70
2022-09-01T08:18:10.513Z,64.49
2022-09-01T08:19:16.596Z,64.09
2022-09-01T08:20:10.432Z,65.09
2022-09-01T08:21:09.442Z,65.80
2022-09-01T08:22:09.401Z,64.99
2022-09-01T08:23:09.392Z,65.30
2022-09-01T08:24:09.380Z,65.19
2022-09-01T08:25:09.372Z,65.50
2022-09-01T08:26:09.372Z,64.89
2022-09-01T08:27:09.334Z,64.99
2022-09-01T08:28:09.325Z,65.06
2022-09-01T08:29:09.380Z,65.67
2022-09-01T08:30:09.302Z,65.77
2022-09-01T08:31:11.356Z,64.36
2022-09-01T08:32:09.356Z,64.16
2022-09-01T08:33:10.760Z,64.13
2022-09-01T08:34:09.251Z,63.53
2022-09-01T08:35:09.244Z,62.52
2022-09-01T08:36:09.222Z,62.22
2022-09-01T08:37:09.216Z,62.32
2022-09-01T08:38:09.204Z,62.32
2022-09-01T08:39:09.194Z,63.19
2022-09-01T08:40:09.238Z,62.08
2022-09-01T08:41:09.164Z,62.59
2022-09-01T08:42:09.140Z,62.59
2022-09-01T08:43:13.193Z,62.08
2022-09-01T08:44:10.111Z,61.79
2022-09-01T08:45:09.103Z,60.38
2022-09-01T08:46:09.128Z,60.98
2022-09-01T08:47:09.070Z,61.38
2022-09-01T08:48:57.110Z,62.69
2022-09-01T08:49:24.617Z,63.26
2022-09-01T08:50:10.058Z,62.06
2022-09-01T08:51:14.943Z,60.96
2022-09-01T08:52:10.035Z,61.55
2022-09-01T08:53:09.412Z,59.14
2022-09-01T08:54:09.085Z,59.27
2022-09-01T08:55:08.975Z,60.68
2022-09-01T08:56:09.473Z,60.96
2022-09-01T08:57:08.978Z,60.65
2022-09-01T08:58:09.738Z,59.95
2022-09-01T08:59:08.923Z,59.82
2022-09-01T09:00:08.909Z,58.01
2022-09-01T09:01:08.910Z,56.91
2022-09-01T09:02:08.963Z,57.61
2022-09-01T09:03:09.015Z,55.51
2022-09-01T09:04:08.863Z,54.80
2022-09-01T09:05:16.253Z,56.88
2022-09-01T09:06:09.839Z,56.88
2022-09-01T09:07:08.827Z,58.18
2022-09-01T09:08:08.818Z,57.18
2022-09-01T09:09:08.815Z,58.09
2022-09-01T09:10:08.789Z,57.56
2022-09-01T09:11:08.775Z,57.76
2022-09-01T09:12:08.905Z,55.75
2022-09-01T09:13:08.739Z,56.28
2022-09-01T09:14:08.727Z,55.88
2022-09-01T09:15:08.729Z,55.38
2022-09-01T09:16:09.013Z,56.18
2022-09-01T09:17:08.717Z,55.38
2022-09-01T09:18:20.209Z,56.35
2022-09-01T09:19:09.700Z,56.76
2022-09-01T09:20:09.282Z,54.85
2022-09-01T09:21:08.628Z,55.85
2022-09-01T09:22:08.721Z,55.52
2022-09-01T09:23:08.602Z,55.95
2022-09-01T09:24:08.601Z,55.28
2022-09-01T09:25:08.601Z,55.98
2022-09-01T09:26:08.594Z,57.46
2022-09-01T09:27:09.753Z,56.56
2022-09-01T09:28:08.542Z,55.35
2022-09-01T09:29:08.522Z,55.55
2022-09-01T09:30:11.320Z,54.55
2022-09-01T09:31:08.585Z,55.32
2022-09-01T09:32:22.578Z,55.13
2022-09-01T09:33:47.839Z,56.13
2022-09-01T09:34:09.459Z,56.33
2022-09-01T09:35:08.482Z,57.15
2022-09-01T09:36:08.450Z,56.73
2022-09-01T09:37:08.432Z,57.13
2022-09-01T09:38:09.324Z,55.93
2022-09-01T09:39:08.455Z,56.43
2022-09-01T09:40:10.212Z,56.23
2022-09-01T09:42:09.366Z,54.25
2022-09-01T09:43:08.348Z,55.08
2022-09-01T09:44:11.295Z,56.58
2022-09-01T09:45:09.862Z,56.38
2022-09-01T09:46:23.313Z,55.98
2022-09-01T09:47:27.216Z,56.76
2022-09-01T09:48:11.025Z,56.85
2022-09-01T09:49:08.262Z,57.46
2022-09-01T09:50:08.256Z,56.45
2022-09-01T09:51:08.234Z,55.85
2022-09-01T09:52:08.258Z,56.76
2022-09-01T09:53:08.215Z,56.65
2022-09-01T09:54:08.211Z,56.23
2022-09-01T09:55:08.186Z,55.02
2022-09-01T09:56:08.163Z,53.80
2022-09-01T09:57:08.152Z,53.17
2022-09-01T09:58:08.143Z,53.34
2022-09-01T09:59:08.154Z,52.94
2022-09-01T10:00:08.134Z,51.92
2022-09-01T10:01:08.167Z,52.82
2022-09-01T10:02:08.107Z,51.69
2022-09-01T10:03:08.834Z,51.39
2022-09-01T10:04:08.173Z,52.92
2022-09-01T10:05:08.080Z,52.92
2022-09-01T10:06:08.058Z,53.02
2022-09-01T10:07:08.038Z,52.12
2022-09-01T10:08:08.027Z,52.69
2022-09-01T10:09:08.007Z,52.09
2022-09-01T10:10:08.013Z,53.17
2022-09-01T10:11:08.243Z,53.57
2022-09-01T10:12:07.964Z,51.67
2022-09-01T10:13:07.955Z,51.09
2022-09-01T10:14:07.940Z,51.59
2022-09-01T10:15:13.909Z,51.59
2022-09-01T10:16:09.260Z,51.50
2022-09-01T10:17:07.988Z,51.50
2022-09-01T10:18:29.033Z,51.09
2022-09-01T10:19:12.553Z,50.77
2022-09-01T10:20:07.919Z,50.54
2022-09-01T10:21:07.852Z,51.22
2022-09-01T10:22:07.839Z,49.12
2022-09-01T10:23:15.238Z,48.30
2022-09-01T10:24:26.967Z,48.60
2022-09-01T10:25:10.352Z,48.58
2022-09-01T10:26:09.565Z,49.08
2022-09-01T10:27:13.864Z,50.37
2022-09-01T10:28:08.820Z,49.95
2022-09-01T10:29:08.377Z,49.15
2022-09-01T10:30:19.157Z,49.55
2022-09-01T10:31:09.077Z,49.25
2022-09-01T10:32:30.711Z,49.38
2022-09-01T10:33:19.125Z,50.10
2022-09-01T10:34:08.682Z,51.52
2022-09-01T10:35:07.671Z,51.02
2022-09-01T10:36:08.006Z,50.95
2022-09-01T10:37:11.211Z,51.25
2022-09-01T10:38:08.265Z,51.52
2022-09-01T10:39:09.164Z,51.82
2022-09-01T10:40:07.646Z,49.62
2022-09-01T10:41:07.938Z,49.42
2022-09-01T10:42:07.600Z,48.93
2022-09-01T10:43:12.411Z,47.83
2022-09-01T10:44:08.550Z,48.90
2022-09-01T10:45:07.533Z,47.50
2022-09-01T10:46:09.199Z,48.40
2022-09-01T10:47:13.220Z,48.63
2022-09-01T10:48:08.559Z,48.93
2022-09-01T10:49:07.885Z,49.05
2022-09-01T10:50:10.292Z,49.35
2022-09-01T10:51:07.464Z,48.94
2022-09-01T10:52:13.027Z,50.22
2022-09-01T10:53:08.424Z,49.62
2022-09-01T10:54:07.413Z,49.80
2022-09-01T10:55:07.434Z,49.50
2022-09-01T10:56:19.287Z,48.20
2022-09-01T10:57:08.888Z,48.70
2022-09-01T10:59:29.831Z,49.60
2022-09-01T11:00:34.894Z,49.25
2022-09-01T11:01:11.764Z,48.35
2022-09-01T11:02:26.355Z,48.43
2022-09-01T11:04:08.349Z,48.55
2022-09-01T11:05:07.339Z,49.87
2022-09-01T11:06:14.382Z,49.08
2022-09-01T11:07:15.324Z,49.27
2022-09-01T11:08:15.721Z,49.48
2022-09-01T11:09:08.216Z,49.18
2022-09-01T11:10:12.680Z,48.70
2022-09-01T11:11:08.187Z,49.10
2022-09-01T11:12:07.177Z,49.20
2022-09-01T11:13:07.165Z,49.60
2022-09-01T11:14:07.178Z,49.70
2022-09-01T11:15:07.200Z,49.60
2022-09-01T11:16:07.149Z,49.87
2022-09-01T11:17:07.184Z,49.08
2022-09-01T11:18:07.110Z,49.08
2022-09-01T11:19:07.477Z,49.05
2022-09-01T11:20:07.194Z,49.85
2022-09-01T11:21:07.070Z,48.85
2022-09-01T11:22:07.138Z,47.38
2022-09-01T11:23:07.041Z,47.98
2022-09-01T11:24:07.019Z,48.13
2022-09-01T11:25:11.741Z,48.14
2022-09-01T11:26:23.442Z,49.95
2022-09-01T11:27:07.989Z,50.45
2022-09-01T11:28:06.960Z,49.25
2022-09-01T11:29:06.958Z,49.27
2022-09-01T11:30:07.099Z,49.77
2022-09-01T11:31:06.932Z,49.99
2022-09-01T11:32:06.957Z,49.29
2022-09-01T11:33:06.923Z,49.72
2022-09-01T11:34:06.913Z,50.54
2022-09-01T11:35:06.889Z,50.74
2022-09-01T11:36:06.872Z,50.34
2022-09-01T11:37:06.853Z,50.42
2022-09-01T11:38:06.831Z,52.19
2022-09-01T11:39:06.822Z,51.47
2022-09-01T11:40:06.953Z,50.84
2022-09-01T11:41:06.792Z,50.02
2022-09-01T11:42:06.783Z,48.30
2022-09-01T11:43:06.788Z,47.98
2022-09-01T11:44:07.806Z,49.75
2022-09-01T11:45:06.763Z,47.83
2022-09-01T11:46:06.749Z,45.34
2022-09-01T11:47:09.636Z,45.44
2022-09-01T11:48:07.750Z,46.44
2022-09-01T11:49:06.703Z,47.51
2022-09-01T11:50:06.690Z,47.61
2022-09-01T11:51:06.674Z,47.11
2022-09-01T11:52:06.656Z,46.44
2022-09-01T11:53:06.675Z,46.24
2022-09-01T11:54:06.647Z,46.16
2022-09-01T11:55:06.605Z,47.16
2022-09-01T11:56:06.604Z,46.26
2022-09-01T11:57:06.575Z,47.06
2022-09-01T11:58:06.586Z,46.38
2022-09-01T11:59:06.567Z,45.98
2022-09-01T12:00:06.567Z,46.68
2022-09-01T12:01:06.540Z,45.13
2022-09-01T12:02:06.592Z,45.95
2022-09-01T12:03:06.605Z,46.75
2022-09-01T12:04:06.504Z,46.95
2022-09-01T12:05:06.527Z,46.45
2022-09-01T12:06:06.477Z,46.75
2022-09-01T12:07:10.675Z,46.25
2022-09-01T12:08:06.445Z,46.85
2022-09-01T12:09:06.427Z,46.75
2022-09-01T12:10:06.427Z,48.93
2022-09-01T12:11:06.441Z,46.83
2022-09-01T12:12:13.476Z,46.65
2022-09-01T12:13:06.384Z,47.03
2022-09-01T12:14:10.872Z,46.33
2022-09-01T12:15:07.352Z,46.33
2022-09-01T12:16:21.758Z,45.23
2022-09-01T12:17:07.364Z,46.01
2022-09-01T12:18:06.313Z,45.40
2022-09-01T12:19:06.360Z,44.63
2022-09-01T12:20:06.290Z,45.31
2022-09-01T12:21:06.273Z,47.50
2022-09-01T12:22:06.273Z,46.88
2022-09-01T12:23:06.255Z,46.98
2022-09-01T12:24:06.261Z,47.45
2022-09-01T12:25:06.215Z,46.46
2022-09-01T12:26:06.220Z,45.26
2022-09-01T12:27:06.207Z,45.54
2022-09-01T12:28:06.229Z,44.65
2022-09-01T12:29:06.175Z,45.44
2022-09-01T12:30:06.158Z,44.72
2022-09-01T12:31:07.642Z,45.12
2022-09-01T12:32:06.206Z,45.22
2022-09-01T12:34:07.103Z,43.93
2022-09-01T12:35:11.363Z,43.95
2022-09-01T12:36:07.112Z,44.24
2022-09-01T12:37:06.059Z,45.22
2022-09-01T12:38:09.489Z,46.42
2022-09-01T12:39:06.026Z,45.42
2022-09-01T12:40:06.811Z,45.02
2022-09-01T12:41:06.019Z,46.20
2022-09-01T12:42:06.510Z,44.31
2022-09-01T12:43:06.567Z,42.93
2022-09-01T12:44:07.073Z,43.52
2022-09-01T12:45:06.018Z,44.42
2022-09-01T12:46:05.983Z,45.72
2022-09-01T12:47:06.017Z,43.73
2022-09-01T12:48:05.928Z,43.82
2022-09-01T12:49:05.944Z,44.42
2022-09-01T12:50:05.910Z,44.92
2022-09-01T12:51:05.899Z,44.40
2022-09-01T12:52:05.882Z,45.00
2022-09-01T12:53:06.098Z,44.40
2022-09-01T12:54:06.400Z,43.60
2022-09-01T12:55:05.829Z,43.80
2022-09-01T12:56:05.831Z,44.10
2022-09-01T12:57:05.811Z,44.01
2022-09-01T12:58:05.841Z,44.28
2022-09-01T12:59:06.549Z,43.88
2022-09-01T13:00:06.770Z,43.16
2022-09-01T13:01:05.893Z,43.46
2022-09-01T13:02:05.931Z,42.67
2022-09-01T13:03:08.368Z,42.27
2022-09-01T13:04:06.213Z,42.35
2022-09-01T13:05:06.017Z,42.03
2022-09-01T13:06:05.684Z,40.82
2022-09-01T13:07:05.682Z,41.50
2022-09-01T13:08:06.019Z,42.79
2022-09-01T13:09:05.653Z,41.93
2022-09-01T13:10:07.228Z,41.63
2022-09-01T13:11:05.644Z,41.46
2022-09-01T13:12:06.968Z,42.17
2022-09-01T13:13:05.596Z,42.09
2022-09-01T13:14:05.600Z,42.19
2022-09-01T13:15:05.745Z,42.51
2022-09-01T13:16:05.605Z,44.20